createdAt,value
2023-03-21T00:02:24.479Z,11.83
2023-03-21T00:05:27.025Z,11.83
2023-03-21T00:08:29.696Z,12.00
2023-03-21T00:11:32.253Z,12.09
2023-03-21T00:14:34.986Z,12.21
2023-03-21T00:17:39.944Z,12.21
2023-03-21T00:20:42.451Z,12.13
2023-03-21T00:23:46.701Z,12.02
2023-03-21T00:26:50.509Z,12.07
2023-03-21T00:29:52.870Z,12.00
2023-03-21T00:32:56.793Z,11.94
2023-03-21T00:36:05.256Z,11.89
2023-03-21T00:39:08.210Z,12.00
2023-03-21T00:42:10.862Z,12.11
2023-03-21T00:45:13.579Z,12.14
2023-03-21T00:48:16.094Z,12.11
2023-03-21T00:51:26.634Z,11.79
2023-03-21T00:54:29.298Z,11.73
2023-03-21T00:57:38.972Z,11.57
2023-03-21T01:00:42.650Z,11.45
2023-03-21T01:03:51.252Z,11.33
2023-03-21T01:06:54.403Z,11.28
2023-03-21T01:09:56.860Z,11.21
2023-03-21T01:13:00.071Z,11.07
2023-03-21T01:16:03.673Z,11.01
2023-03-21T01:19:09.461Z,11.01
2023-03-21T01:22:17.166Z,10.91
2023-03-21T01:25:22.608Z,10.83
2023-03-21T01:28:29.106Z,10.79
2023-03-21T01:31:32.416Z,10.70
2023-03-21T01:34:34.962Z,10.71
2023-03-21T01:37:37.464Z,10.64
2023-03-21T01:40:40.593Z,10.63
2023-03-21T01:43:43.204Z,10.56
2023-03-21T01:50:12.946Z,10.40
2023-03-21T01:53:16.037Z,10.43
2023-03-21T01:56:21.321Z,10.48
2023-03-21T01:59:55.034Z,10.51
2023-03-21T02:03:09.746Z,10.58
2023-03-21T02:06:17.125Z,10.67
2023-03-21T02:09:22.376Z,10.64
2023-03-21T02:12:26.488Z,10.59
2023-03-21T02:15:28.814Z,10.53
2023-03-21T02:18:31.319Z,10.45
2023-03-21T02:21:33.905Z,10.42
2023-03-21T02:25:01.220Z,10.42
2023-03-21T02:28:09.746Z,10.38
2023-03-21T02:31:21.124Z,10.36
2023-03-21T02:34:23.747Z,10.40
2023-03-21T02:37:36.730Z,10.47
2023-03-21T02:41:00.416Z,10.58
2023-03-21T02:44:20.314Z,10.50
2023-03-21T02:47:39.919Z,10.48
2023-03-21T02:50:53.301Z,10.49
2023-03-21T02:54:23.636Z,10.44
2023-03-21T02:57:23.934Z,10.42
2023-03-21T03:00:30.045Z,10.39
2023-03-21T03:03:34.793Z,10.49
2023-03-21T03:06:56.472Z,10.55
2023-03-21T03:10:01.618Z,10.61
2023-03-21T03:13:23.550Z,10.73
2023-03-21T03:16:37.009Z,10.79
2023-03-21T03:19:50.633Z,10.72
2023-03-21T03:23:22.505Z,10.67
2023-03-21T03:26:35.112Z,10.67
2023-03-21T03:29:39.640Z,10.67
2023-03-21T03:32:48.350Z,10.68
2023-03-21T03:36:04.362Z,10.65
2023-03-21T03:39:12.476Z,10.61
2023-03-21T03:42:33.757Z,10.70
2023-03-21T03:45:38.804Z,10.68
2023-03-21T03:48:51.179Z,10.68
2023-03-21T03:52:08.016Z,10.71
2023-03-21T03:55:12.846Z,10.75
2023-03-21T03:58:24.020Z,10.72
2023-03-21T04:01:29.785Z,10.75
2023-03-21T04:04:32.681Z,10.75
2023-03-21T04:07:35.099Z,10.71
2023-03-21T04:10:38.239Z,10.62
2023-03-21T04:13:41.822Z,10.62
2023-03-21T04:16:44.267Z,10.58
2023-03-21T04:19:46.963Z,10.53
2023-03-21T04:22:49.352Z,10.56
2023-03-21T04:25:56.572Z,10.47
2023-03-21T04:29:03.154Z,10.39
2023-03-21T04:32:20.010Z,10.32
2023-03-21T04:35:24.219Z,10.28
2023-03-21T04:38:32.820Z,10.17
2023-03-21T04:41:37.420Z,10.11
2023-03-21T04:44:39.627Z,10.09
2023-03-21T04:47:43.382Z,10.11
2023-03-21T04:50:46.906Z,9.98
2023-03-21T04:53:49.765Z,10.01
2023-03-21T04:56:53.230Z,9.99
2023-03-21T04:59:55.790Z,10.05
2023-03-21T05:02:58.786Z,10.05
2023-03-21T05:06:02.972Z,10.00
2023-03-21T05:09:08.058Z,10.01
2023-03-21T05:12:10.416Z,10.05
2023-03-21T05:15:13.103Z,10.06
2023-03-21T05:18:15.531Z,10.08
2023-03-21T05:21:19.853Z,10.08
2023-03-21T05:24:22.776Z,10.15
2023-03-21T05:27:37.432Z,10.17
2023-03-21T05:30:39.897Z,10.27
2023-03-21T05:33:42.879Z,10.38
2023-03-21T05:36:45.372Z,10.52
2023-03-21T05:39:48.125Z,10.74
2023-03-21T05:42:50.675Z,10.89
2023-03-21T05:45:53.410Z,11.13
2023-03-21T05:48:55.734Z,11.28
2023-03-21T05:51:58.370Z,11.49
2023-03-21T05:55:00.884Z,12.01
2023-03-21T05:58:03.533Z,12.25
2023-03-21T06:01:06.658Z,12.06
2023-03-21T06:04:09.077Z,11.89
2023-03-21T06:07:11.972Z,11.85
2023-03-21T06:10:14.591Z,11.83
2023-03-21T06:13:17.267Z,11.88
2023-03-21T06:16:19.602Z,12.01
2023-03-21T06:19:22.606Z,12.12
2023-03-21T06:22:26.590Z,12.32
2023-03-21T06:25:29.126Z,12.94
2023-03-21T06:28:31.856Z,13.09
2023-03-21T06:31:34.407Z,14.25
2023-03-21T06:34:39.449Z,16.78
2023-03-21T06:37:43.478Z,16.23
2023-03-21T06:40:46.597Z,15.13
2023-03-21T06:43:48.936Z,14.95
2023-03-21T06:46:51.859Z,14.68
2023-03-21T06:49:54.316Z,14.04
2023-03-21T06:52:57.859Z,13.64
2023-03-21T06:56:00.476Z,13.74
2023-03-21T06:59:03.360Z,13.61
2023-03-21T07:02:06.195Z,13.86
2023-03-21T07:05:10.432Z,14.94
2023-03-21T07:08:14.490Z,19.23
2023-03-21T07:11:17.109Z,20.97
2023-03-21T07:14:19.881Z,17.15
2023-03-21T07:17:22.946Z,18.48
2023-03-21T07:20:27.832Z,19.46
2023-03-21T07:23:39.264Z,22.43
2023-03-21T07:26:52.551Z,18.78
2023-03-21T07:29:54.854Z,16.97
2023-03-21T07:32:59.817Z,17.17
2023-03-21T07:39:23.280Z,15.64
2023-03-21T07:42:25.726Z,15.75
2023-03-21T07:45:28.370Z,15.55
2023-03-21T07:48:39.756Z,15.80
2023-03-21T07:51:42.516Z,15.13
2023-03-21T07:54:44.860Z,15.17
2023-03-21T07:57:51.799Z,15.37
2023-03-21T08:00:56.716Z,15.49
2023-03-21T08:04:05.567Z,15.75
2023-03-21T08:07:07.921Z,15.38
2023-03-21T08:10:12.022Z,16.00
2023-03-21T08:13:18.836Z,16.38
2023-03-21T08:16:22.012Z,16.37
2023-03-21T08:19:24.718Z,16.63
2023-03-21T08:22:27.344Z,16.80
2023-03-21T08:25:29.753Z,16.77
2023-03-21T08:28:32.220Z,17.08
2023-03-21T08:31:34.695Z,17.11
2023-03-21T08:34:39.414Z,17.24
2023-03-21T08:37:42.353Z,17.33
2023-03-21T08:40:45.394Z,17.51
2023-03-21T08:43:48.853Z,17.39
2023-03-21T08:46:56.461Z,17.32
2023-03-21T08:49:59.597Z,17.39
2023-03-21T08:53:03.438Z,17.55
2023-03-21T08:59:37.108Z,16.81
2023-03-21T09:02:40.141Z,16.51
2023-03-21T09:05:45.819Z,16.64
2023-03-21T09:08:49.144Z,16.98
2023-03-21T09:11:52.640Z,16.70
2023-03-21T09:14:55.173Z,16.98
2023-03-21T09:17:58.959Z,17.09
2023-03-21T09:21:01.965Z,16.86
2023-03-21T09:24:06.831Z,16.71
2023-03-21T09:27:09.601Z,16.50
2023-03-21T09:30:13.454Z,16.75
2023-03-21T09:33:21.504Z,16.80
2023-03-21T09:36:26.644Z,16.88
2023-03-21T09:39:29.709Z,16.80
2023-03-21T09:42:48.649Z,16.97
2023-03-21T09:46:11.295Z,16.74
2023-03-21T09:49:31.603Z,16.71
2023-03-21T09:52:54.418Z,16.69
2023-03-21T09:55:57.335Z,16.84
2023-03-21T09:59:00.975Z,16.81
2023-03-21T10:02:04.846Z,16.69
2023-03-21T10:05:13.163Z,16.94
2023-03-21T10:08:36.748Z,16.57
2023-03-21T10:11:42.561Z,16.50
2023-03-21T10:14:47.336Z,16.46
2023-03-21T10:17:53.771Z,16.36
2023-03-21T10:20:56.389Z,16.73
2023-03-21T10:24:00.177Z,16.99
2023-03-21T10:27:03.039Z,16.93
2023-03-21T10:30:07.739Z,16.81
2023-03-21T10:33:13.808Z,16.58
2023-03-21T10:36:20.816Z,16.71
2023-03-21T10:39:23.640Z,16.91
2023-03-21T10:42:33.294Z,17.32
2023-03-21T10:45:36.730Z,17.42
2023-03-21T10:48:50.671Z,17.43
2023-03-21T10:51:59.197Z,17.20
2023-03-21T10:55:20.567Z,17.65
2023-03-21T10:58:29.236Z,17.58
2023-03-21T11:01:36.789Z,17.33
2023-03-21T11:04:39.176Z,17.09
2023-03-21T11:07:42.468Z,17.29
2023-03-21T11:10:51.853Z,17.38
2023-03-21T11:13:59.374Z,17.19
2023-03-21T11:17:02.332Z,17.56
2023-03-21T11:20:06.703Z,17.96
2023-03-21T11:23:11.383Z,18.20
2023-03-21T11:26:19.886Z,17.82
2023-03-21T11:29:43.218Z,18.09
2023-03-21T11:32:46.044Z,17.36
2023-03-21T11:36:02.256Z,17.13
2023-03-21T11:39:23.154Z,16.94
2023-03-21T11:42:27.380Z,17.20
2023-03-21T11:45:29.886Z,16.98
2023-03-21T11:48:41.117Z,17.22
2023-03-21T11:51:43.487Z,17.69
2023-03-21T11:54:46.203Z,18.14
2023-03-21T11:58:05.287Z,18.06
2023-03-21T12:01:20.712Z,17.87
2023-03-21T12:04:32.390Z,18.24
2023-03-21T12:07:53.640Z,18.51
2023-03-21T12:11:04.915Z,18.18
2023-03-21T12:14:16.628Z,17.59
2023-03-21T12:17:19.193Z,17.35
2023-03-21T12:20:24.670Z,17.53
2023-03-21T12:23:33.010Z,18.32
2023-03-21T12:26:54.345Z,17.88
2023-03-21T12:30:15.668Z,17.62
2023-03-21T12:33:17.999Z,17.20
2023-03-21T12:36:39.245Z,17.05
2023-03-21T12:39:41.853Z,16.90
2023-03-21T12:42:59.655Z,16.73
2023-03-21T12:46:23.649Z,16.54
2023-03-21T12:49:29.099Z,16.54
2023-03-21T12:52:35.592Z,16.32
2023-03-21T12:55:39.961Z,16.00
2023-03-21T12:58:46.397Z,16.03
2023-03-21T13:01:51.315Z,15.98
2023-03-21T13:05:01.541Z,16.22
2023-03-21T13:08:07.775Z,16.68
2023-03-21T13:11:13.974Z,17.53
2023-03-21T13:14:21.160Z,18.30
2023-03-21T13:17:27.980Z,18.43
2023-03-21T13:20:45.537Z,18.03
2023-03-21T13:24:04.848Z,17.93
2023-03-21T13:27:21.820Z,17.47
2023-03-21T13:30:26.791Z,17.01
2023-03-21T13:33:30.618Z,16.97
2023-03-21T13:36:38.252Z,16.92
2023-03-21T13:39:43.939Z,16.89
2023-03-21T13:42:51.333Z,16.73
2023-03-21T13:45:54.359Z,16.60
2023-03-21T13:49:00.145Z,16.49
2023-03-21T13:52:22.822Z,16.39
2023-03-21T13:55:27.911Z,16.34
2023-03-21T13:58:35.120Z,16.21
2023-03-21T14:01:44.441Z,16.23
2023-03-21T14:05:04.118Z,16.45
2023-03-21T14:08:15.443Z,16.39
2023-03-21T14:11:22.353Z,16.77
2023-03-21T14:14:27.469Z,16.95
2023-03-21T14:17:31.585Z,17.28
2023-03-21T14:20:38.594Z,17.47
2023-03-21T14:23:41.282Z,17.63
2023-03-21T14:26:48.342Z,17.73
2023-03-21T14:29:53.618Z,17.61
2023-03-21T14:32:59.984Z,17.54
2023-03-21T14:36:14.395Z,17.44
2023-03-21T14:39:26.525Z,17.57
2023-03-21T14:42:34.534Z,17.55
2023-03-21T14:45:37.421Z,17.67
2023-03-21T14:48:39.887Z,17.68
2023-03-21T14:51:43.199Z,17.68
2023-03-21T14:54:47.615Z,17.21
2023-03-21T14:57:50.310Z,17.19
2023-03-21T15:00:53.570Z,17.08
2023-03-21T15:03:56.270Z,17.05
2023-03-21T15:07:05.345Z,17.01
2023-03-21T15:10:09.817Z,16.83
2023-03-21T15:13:16.908Z,16.88
2023-03-21T15:16:19.932Z,16.81
2023-03-21T15:19:25.357Z,16.67
2023-03-21T15:22:27.912Z,16.60
2023-03-21T15:25:33.392Z,16.66
2023-03-21T15:28:36.482Z,16.55
2023-03-21T15:31:40.516Z,16.43
2023-03-21T15:34:43.687Z,16.27
2023-03-21T15:37:53.022Z,16.17
2023-03-21T15:41:34.356Z,16.13
2023-03-21T15:44:36.844Z,16.03
2023-03-21T15:47:41.308Z,15.85
2023-03-21T15:50:48.943Z,15.77
2023-03-21T15:53:54.432Z,15.68
2023-03-21T15:56:58.268Z,15.68
2023-03-21T16:00:08.747Z,15.57
2023-03-21T16:03:19.432Z,15.47
2023-03-21T16:06:24.795Z,15.43
2023-03-21T16:09:27.255Z,15.39
2023-03-21T16:12:29.820Z,15.30
2023-03-21T16:15:32.564Z,15.17
2023-03-21T16:18:35.231Z,15.07
2023-03-21T16:21:40.349Z,15.01
2023-03-21T16:24:42.907Z,14.92
2023-03-21T16:27:46.130Z,14.84
2023-03-21T16:30:48.309Z,14.71
2023-03-21T16:33:51.730Z,14.62
2023-03-21T16:36:54.029Z,14.54
2023-03-21T16:39:56.680Z,14.48
2023-03-21T16:42:59.266Z,14.40
2023-03-21T16:46:01.796Z,14.25
2023-03-21T16:49:04.638Z,14.14
2023-03-21T16:52:07.203Z,14.03
2023-03-21T16:55:09.905Z,13.95
2023-03-21T16:58:14.940Z,13.87
2023-03-21T17:01:19.710Z,13.89
2023-03-21T17:04:22.870Z,13.76
2023-03-21T17:07:25.767Z,13.65
2023-03-21T17:10:29.038Z,13.55
2023-03-21T17:13:31.231Z,13.52
2023-03-21T17:16:33.840Z,13.52
2023-03-21T17:19:36.447Z,13.43
2023-03-21T17:22:38.642Z,13.26
2023-03-21T17:25:41.333Z,13.17
2023-03-21T17:28:43.670Z,13.21
2023-03-21T17:31:48.743Z,13.16
2023-03-21T17:34:53.650Z,13.14
2023-03-21T17:37:59.029Z,13.09
2023-03-21T17:41:01.734Z,13.00
2023-03-21T17:44:04.312Z,12.98
2023-03-21T17:47:06.761Z,12.94
2023-03-21T17:50:28.305Z,12.90
2023-03-21T17:53:30.635Z,12.89
2023-03-21T17:56:34.651Z,12.84
2023-03-21T17:59:37.341Z,12.86
2023-03-21T18:02:40.550Z,12.81
2023-03-21T18:05:43.060Z,12.76
2023-03-21T18:08:46.248Z,12.88
2023-03-21T18:11:48.712Z,12.84
2023-03-21T18:14:51.573Z,12.85
2023-03-21T18:17:53.970Z,12.77
2023-03-21T18:20:58.409Z,12.90
2023-03-21T18:24:01.314Z,12.87
2023-03-21T18:27:04.195Z,12.83
2023-03-21T18:30:32.758Z,12.80
2023-03-21T18:33:30.339Z,12.83
2023-03-21T18:36:32.737Z,12.85
2023-03-21T18:39:35.063Z,12.78
2023-03-21T18:42:37.429Z,12.82
2023-03-21T18:45:39.862Z,12.75
2023-03-21T18:48:42.949Z,12.66
2023-03-21T18:51:47.276Z,12.64
2023-03-21T18:54:50.374Z,12.62
2023-03-21T18:57:54.180Z,12.62
2023-03-21T19:00:59.829Z,12.55
2023-03-21T19:04:21.460Z,12.61
2023-03-21T19:07:25.284Z,12.53
2023-03-21T19:10:28.693Z,12.52
2023-03-21T19:13:31.057Z,12.44
2023-03-21T19:16:49.728Z,12.47
2023-03-21T19:19:55.979Z,12.47
2023-03-21T19:22:58.616Z,12.36
2023-03-21T19:26:01.231Z,12.46
2023-03-21T19:29:03.720Z,12.48
2023-03-21T19:32:06.981Z,12.33
2023-03-21T19:35:10.036Z,12.32
2023-03-21T19:38:12.956Z,12.37
2023-03-21T19:41:15.679Z,12.33
2023-03-21T19:44:18.468Z,12.37
2023-03-21T19:47:20.904Z,12.34
2023-03-21T19:50:57.956Z,12.23
2023-03-21T19:53:52.434Z,12.24
2023-03-21T19:56:55.227Z,12.07
2023-03-21T19:59:57.885Z,12.06
2023-03-21T20:03:00.452Z,11.98
2023-03-21T20:06:04.592Z,11.92
2023-03-21T20:12:29.838Z,11.91
2023-03-21T20:15:32.747Z,12.04
2023-03-21T20:18:35.871Z,12.06
2023-03-21T20:21:49.051Z,11.90
2023-03-21T20:24:54.604Z,11.87
2023-03-21T20:28:14.563Z,11.76
2023-03-21T20:31:19.119Z,11.62
2023-03-21T20:34:22.013Z,11.51
2023-03-21T20:37:24.705Z,11.42
2023-03-21T20:40:27.758Z,11.30
2023-03-21T20:46:53.416Z,11.11
2023-03-21T20:50:00.014Z,11.03
2023-03-21T20:53:07.303Z,10.95
2023-03-21T20:56:10.105Z,11.00
2023-03-21T20:59:23.227Z,10.94
2023-03-21T21:02:28.867Z,10.89
2023-03-21T21:05:34.820Z,10.91
2023-03-21T21:08:38.645Z,10.89
2023-03-21T21:15:03.609Z,11.04
2023-03-21T21:18:07.600Z,11.03
2023-03-21T21:21:10.875Z,10.93
2023-03-21T21:24:14.738Z,10.81
2023-03-21T21:27:17.675Z,10.75
2023-03-21T21:30:20.392Z,10.74
2023-03-21T21:33:23.102Z,10.70
2023-03-21T21:36:25.318Z,10.61
2023-03-21T21:39:27.936Z,10.55
2023-03-21T21:42:30.276Z,10.50
2023-03-21T21:45:32.970Z,10.51
2023-03-21T21:48:35.459Z,10.49
2023-03-21T21:51:38.345Z,10.54
2023-03-21T21:54:45.879Z,10.57
2023-03-21T21:57:50.951Z,10.55
2023-03-21T22:00:54.041Z,10.52
2023-03-21T22:03:58.231Z,10.47
2023-03-21T22:07:02.644Z,10.49
2023-03-21T22:10:05.902Z,10.53
2023-03-21T22:13:08.606Z,10.53
2023-03-21T22:16:11.723Z,10.51
2023-03-21T22:19:14.460Z,10.50
2023-03-21T22:22:16.929Z,10.50
2023-03-21T22:25:19.410Z,10.50
2023-03-21T22:28:22.416Z,10.53
2023-03-21T22:31:26.485Z,10.52
2023-03-21T22:34:29.095Z,10.60
2023-03-21T22:37:35.197Z,10.57
2023-03-21T22:40:38.206Z,10.50
2023-03-21T22:43:40.990Z,10.36
2023-03-21T22:46:43.646Z,10.25
2023-03-21T22:49:47.404Z,10.25
2023-03-21T22:52:49.828Z,10.17
2023-03-21T22:55:52.528Z,10.05
2023-03-21T22:58:54.960Z,9.94
2023-03-21T23:01:57.988Z,9.84
2023-03-21T23:05:00.413Z,9.74
2023-03-21T23:08:02.788Z,9.62
2023-03-21T23:11:09.003Z,9.57
2023-03-21T23:14:14.297Z,9.51
2023-03-21T23:17:16.774Z,9.48
2023-03-21T23:20:19.528Z,9.44
2023-03-21T23:23:22.093Z,9.45
2023-03-21T23:26:24.635Z,9.36
2023-03-21T23:29:27.280Z,9.21
2023-03-21T23:32:29.685Z,9.12
2023-03-21T23:35:35.106Z,9.02
2023-03-21T23:38:37.839Z,8.92
2023-03-21T23:41:43.140Z,8.81
2023-03-21T23:44:45.712Z,8.76
2023-03-21T23:47:48.224Z,8.72
2023-03-21T23:50:50.875Z,8.62
2023-03-21T23:53:53.764Z,8.55
2023-03-21T23:56:56.638Z,8.49
2023-03-21T23:59:59.428Z,8.43
